createdAt,value
2017-12-08T00:01:27.159Z,28.1
2017-12-08T00:11:26.269Z,23.1
2017-12-08T00:21:27.374Z,46.1
2017-12-08T00:31:27.625Z,48.9
2017-12-08T00:41:26.839Z,50.9
2017-12-08T00:51:26.315Z,48.9
2017-12-08T01:01:28.701Z,55.8
2017-12-08T01:11:27.947Z,53.5
2017-12-08T01:21:27.623Z,38.2
2017-12-08T01:31:27.113Z,46.3
2017-12-08T01:41:26.620Z,27.6
2017-12-08T01:51:26.978Z,30.7
2017-12-08T02:01:26.468Z,24.2
2017-12-08T02:11:28.510Z,34.1
2017-12-08T02:21:27.470Z,43.4
2017-12-08T02:31:28.038Z,31.8
2017-12-08T02:41:26.540Z,31.3
2017-12-08T02:51:26.943Z,33.5
2017-12-08T03:01:28.947Z,22.0
2017-12-08T03:11:26.427Z,21.0
2017-12-08T03:21:29.696Z,20.4
2017-12-08T03:31:27.317Z,24.0
2017-12-08T03:41:26.668Z,26.0
2017-12-08T03:51:27.007Z,24.2
2017-12-08T04:01:27.372Z,26.9
2017-12-08T04:11:27.128Z,23.8
2017-12-08T04:21:27.095Z,27.6
2017-12-08T04:31:26.428Z,27.8
2017-12-08T04:41:28.391Z,20.2
2017-12-08T04:51:27.261Z,26.0
2017-12-08T05:01:26.333Z,19.0
2017-12-08T05:11:27.770Z,22.6
2017-12-08T05:21:26.194Z,26.8
2017-12-08T05:31:27.119Z,27.0
2017-12-08T05:41:26.472Z,24.0
2017-12-08T05:51:28.194Z,30.1
2017-12-08T06:01:27.169Z,39.7
2017-12-08T06:11:27.163Z,30.8
2017-12-08T06:21:28.360Z,28.3
2017-12-08T06:31:26.723Z,33.4
2017-12-08T06:41:27.449Z,37.5
2017-12-08T06:51:27.076Z,43.2
2017-12-08T07:01:26.168Z,40.6
2017-12-08T07:11:26.372Z,55.0
2017-12-08T07:21:28.581Z,49.7
2017-12-08T07:31:26.688Z,30.0
2017-12-08T07:41:28.770Z,33.4
2017-12-08T07:51:27.480Z,20.1
2017-12-08T08:01:26.879Z,17.5
2017-12-08T08:11:26.420Z,23.1
2017-12-08T08:21:28.395Z,15.2
2017-12-08T08:31:27.758Z,18.2
2017-12-08T08:41:30.406Z,16.2
2017-12-08T08:51:27.742Z,15.1
2017-12-08T09:01:27.349Z,17.0
2017-12-08T09:11:27.960Z,21.0
2017-12-08T09:21:26.321Z,21.3
2017-12-08T09:31:27.126Z,17.6
2017-12-08T09:41:26.284Z,20.5
2017-12-08T09:51:26.457Z,16.2
2017-12-08T10:01:27.768Z,15.6
2017-12-08T10:11:29.144Z,15.5
2017-12-08T10:21:28.781Z,14.0
2017-12-08T10:31:27.577Z,18.0
2017-12-08T10:41:26.774Z,11.4
2017-12-08T10:51:28.448Z,16.7
2017-12-08T11:01:27.672Z,14.8
2017-12-08T11:11:27.089Z,13.1
2017-12-08T11:21:27.384Z,14.0
2017-12-08T11:31:26.652Z,11.5
2017-12-08T11:41:27.100Z,12.6
2017-12-08T11:51:26.798Z,17.1
2017-12-08T12:01:26.492Z,19.1
2017-12-08T12:11:27.665Z,15.2
2017-12-08T12:21:27.261Z,15.8
2017-12-08T12:31:27.559Z,17.8
2017-12-08T12:41:28.535Z,14.5
2017-12-08T12:51:27.535Z,17.0
2017-12-08T13:01:27.020Z,18.4
2017-12-08T13:11:27.032Z,18.1
2017-12-08T13:21:28.392Z,17.4
2017-12-08T13:31:28.728Z,16.4
2017-12-08T13:41:34.098Z,18.8
2017-12-08T13:51:29.221Z,26.2
2017-12-08T14:01:29.463Z,20.3
2017-12-08T14:11:29.570Z,26.2
2017-12-08T14:21:30.518Z,23.4
2017-12-08T14:31:27.603Z,25.9
2017-12-08T14:41:28.555Z,30.8
2017-12-08T14:51:26.977Z,30.6
2017-12-08T15:01:27.412Z,27.8
2017-12-08T15:11:26.876Z,36.4
2017-12-08T15:21:26.962Z,36.8
2017-12-08T15:31:26.802Z,35.4
2017-12-08T15:41:32.961Z,26.7
2017-12-08T15:51:28.734Z,26.0
2017-12-08T16:01:27.648Z,28.2
2017-12-08T16:11:27.583Z,29.4
2017-12-08T16:21:27.217Z,27.5
2017-12-08T16:31:27.479Z,26.9
2017-12-08T16:41:27.567Z,25.2
2017-12-08T16:51:27.014Z,28.2
2017-12-08T17:01:26.917Z,23.3
2017-12-08T17:11:26.415Z,21.3
2017-12-08T17:21:27.432Z,23.1
2017-12-08T17:31:26.872Z,21.0
2017-12-08T17:41:26.590Z,21.1
2017-12-08T17:52:15.658Z,22.6
2017-12-08T19:21:31.315Z,32.8
2017-12-08T19:42:18.828Z,49.3
2017-12-08T19:52:44.904Z,46.7
2017-12-08T20:01:34.679Z,41.2
2017-12-08T20:11:34.411Z,40.6
2017-12-08T20:21:44.655Z,41.7
2017-12-08T20:31:29.201Z,34.3
2017-12-08T20:41:29.859Z,31.6
2017-12-08T20:52:19.449Z,41.6
2017-12-08T21:01:38.353Z,44.4
2017-12-08T21:12:59.724Z,52.0
2017-12-08T21:21:48.818Z,50.1
2017-12-08T21:31:49.356Z,45.9
2017-12-08T23:51:30.290Z,35.2
